sensor_id;sensor_type;location;lat;lon;timestamp;P1;durP1;ratioP1;P2;durP2;ratioP2
51248;SDS011;39642;47.556;18.728;2022-07-23T00:02:06;11.05;;;4.32;;
51248;SDS011;39642;47.556;18.728;2022-07-23T00:04:32;12.05;;;4.40;;
51248;SDS011;39642;47.556;18.728;2022-07-23T00:06:58;10.57;;;4.43;;
51248;SDS011;39642;47.556;18.728;2022-07-23T00:09:24;12.75;;;4.87;;
51248;SDS011;39642;47.556;18.728;2022-07-23T00:11:50;10.43;;;4.47;;
51248;SDS011;39642;47.556;18.728;2022-07-23T00:14:16;10.38;;;4.60;;
51248;SDS011;39642;47.556;18.728;2022-07-23T00:16:42;10.63;;;4.30;;
51248;SDS011;39642;47.556;18.728;2022-07-23T00:19:08;14.57;;;4.45;;
51248;SDS011;39642;47.556;18.728;2022-07-23T00:21:34;11.20;;;4.60;;
51248;SDS011;39642;47.556;18.728;2022-07-23T00:24:00;11.30;;;4.50;;
51248;SDS011;39642;47.556;18.728;2022-07-23T00:26:26;10.68;;;4.55;;
51248;SDS011;39642;47.556;18.728;2022-07-23T00:28:52;11.82;;;4.85;;
51248;SDS011;39642;47.556;18.728;2022-07-23T00:31:18;11.68;;;4.70;;
51248;SDS011;39642;47.556;18.728;2022-07-23T00:33:44;10.60;;;4.32;;
51248;SDS011;39642;47.556;18.728;2022-07-23T00:36:10;11.85;;;4.30;;
51248;SDS011;39642;47.556;18.728;2022-07-23T00:38:35;11.70;;;5.50;;
51248;SDS011;39642;47.556;18.728;2022-07-23T00:41:01;11.63;;;4.60;;
51248;SDS011;39642;47.556;18.728;2022-07-23T00:43:27;10.60;;;4.55;;
51248;SDS011;39642;47.556;18.728;2022-07-23T00:45:53;11.98;;;4.97;;
51248;SDS011;39642;47.556;18.728;2022-07-23T00:48:19;9.65;;;4.28;;
51248;SDS011;39642;47.556;18.728;2022-07-23T00:50:45;10.85;;;4.53;;
51248;SDS011;39642;47.556;18.728;2022-07-23T00:53:11;12.30;;;4.53;;
51248;SDS011;39642;47.556;18.728;2022-07-23T00:55:38;11.77;;;4.32;;
51248;SDS011;39642;47.556;18.728;2022-07-23T00:58:04;10.23;;;4.43;;
51248;SDS011;39642;47.556;18.728;2022-07-23T01:00:31;10.68;;;4.53;;
51248;SDS011;39642;47.556;18.728;2022-07-23T01:02:57;10.15;;;4.35;;
51248;SDS011;39642;47.556;18.728;2022-07-23T01:05:23;11.48;;;4.32;;
51248;SDS011;39642;47.556;18.728;2022-07-23T01:07:50;9.98;;;4.15;;
51248;SDS011;39642;47.556;18.728;2022-07-23T01:10:17;12.23;;;4.60;;
51248;SDS011;39642;47.556;18.728;2022-07-23T01:13:09;10.07;;;4.13;;
51248;SDS011;39642;47.556;18.728;2022-07-23T01:15:36;11.85;;;4.43;;
51248;SDS011;39642;47.556;18.728;2022-07-23T01:18:04;10.68;;;4.40;;
51248;SDS011;39642;47.556;18.728;2022-07-23T01:20:31;11.32;;;4.60;;
51248;SDS011;39642;47.556;18.728;2022-07-23T01:22:58;11.35;;;4.28;;
51248;SDS011;39642;47.556;18.728;2022-07-23T01:25:24;10.43;;;4.22;;
51248;SDS011;39642;47.556;18.728;2022-07-23T01:27:53;12.15;;;4.90;;
51248;SDS011;39642;47.556;18.728;2022-07-23T01:30:19;10.85;;;4.55;;
51248;SDS011;39642;47.556;18.728;2022-07-23T01:32:46;10.73;;;4.60;;
51248;SDS011;39642;47.556;18.728;2022-07-23T01:35:12;10.38;;;4.43;;
51248;SDS011;39642;47.556;18.728;2022-07-23T01:37:38;9.73;;;4.10;;
51248;SDS011;39642;47.556;18.728;2022-07-23T01:40:04;10.82;;;4.30;;
51248;SDS011;39642;47.556;18.728;2022-07-23T01:42:31;10.60;;;4.82;;
51248;SDS011;39642;47.556;18.728;2022-07-23T01:44:57;9.82;;;4.37;;
51248;SDS011;39642;47.556;18.728;2022-07-23T01:47:23;11.00;;;4.40;;
51248;SDS011;39642;47.556;18.728;2022-07-23T01:49:49;11.80;;;4.50;;
51248;SDS011;39642;47.556;18.728;2022-07-23T01:52:15;10.90;;;4.45;;
51248;SDS011;39642;47.556;18.728;2022-07-23T01:54:41;10.25;;;4.50;;
51248;SDS011;39642;47.556;18.728;2022-07-23T01:57:08;11.52;;;4.03;;
51248;SDS011;39642;47.556;18.728;2022-07-23T01:59:34;11.12;;;4.22;;
51248;SDS011;39642;47.556;18.728;2022-07-23T02:02:00;11.65;;;4.32;;
51248;SDS011;39642;47.556;18.728;2022-07-23T02:04:26;10.45;;;4.70;;
51248;SDS011;39642;47.556;18.728;2022-07-23T02:06:52;10.48;;;4.60;;
51248;SDS011;39642;47.556;18.728;2022-07-23T02:09:18;10.00;;;4.60;;
51248;SDS011;39642;47.556;18.728;2022-07-23T02:11:45;10.45;;;4.37;;
51248;SDS011;39642;47.556;18.728;2022-07-23T02:14:11;11.05;;;4.60;;
51248;SDS011;39642;47.556;18.728;2022-07-23T02:16:36;10.52;;;4.50;;
51248;SDS011;39642;47.556;18.728;2022-07-23T02:19:03;12.85;;;4.20;;
51248;SDS011;39642;47.556;18.728;2022-07-23T02:21:29;11.40;;;4.10;;
51248;SDS011;39642;47.556;18.728;2022-07-23T02:23:55;10.10;;;4.65;;
51248;SDS011;39642;47.556;18.728;2022-07-23T02:26:21;9.45;;;3.87;;
51248;SDS011;39642;47.556;18.728;2022-07-23T02:28:47;10.73;;;4.32;;
51248;SDS011;39642;47.556;18.728;2022-07-23T02:31:13;10.00;;;4.07;;
51248;SDS011;39642;47.556;18.728;2022-07-23T02:33:39;11.05;;;4.10;;
51248;SDS011;39642;47.556;18.728;2022-07-23T02:36:05;11.48;;;4.32;;
51248;SDS011;39642;47.556;18.728;2022-07-23T02:38:31;10.02;;;4.50;;
51248;SDS011;39642;47.556;18.728;2022-07-23T02:40:56;10.02;;;4.28;;
51248;SDS011;39642;47.556;18.728;2022-07-23T02:43:22;12.93;;;4.82;;
51248;SDS011;39642;47.556;18.728;2022-07-23T02:45:48;9.63;;;4.32;;
51248;SDS011;39642;47.556;18.728;2022-07-23T02:48:14;11.05;;;4.50;;
51248;SDS011;39642;47.556;18.728;2022-07-23T02:50:40;10.38;;;4.35;;
51248;SDS011;39642;47.556;18.728;2022-07-23T02:53:06;11.45;;;4.40;;
51248;SDS011;39642;47.556;18.728;2022-07-23T02:55:32;11.02;;;4.30;;
51248;SDS011;39642;47.556;18.728;2022-07-23T02:57:58;10.77;;;4.20;;
51248;SDS011;39642;47.556;18.728;2022-07-23T03:00:23;11.90;;;4.47;;
51248;SDS011;39642;47.556;18.728;2022-07-23T03:02:49;10.82;;;4.50;;
51248;SDS011;39642;47.556;18.728;2022-07-23T03:05:15;11.40;;;4.50;;
51248;SDS011;39642;47.556;18.728;2022-07-23T03:07:41;12.45;;;4.15;;
51248;SDS011;39642;47.556;18.728;2022-07-23T03:10:07;10.10;;;4.18;;
51248;SDS011;39642;47.556;18.728;2022-07-23T03:12:33;12.07;;;4.22;;
51248;SDS011;39642;47.556;18.728;2022-07-23T03:14:59;10.50;;;4.12;;
51248;SDS011;39642;47.556;18.728;2022-07-23T03:17:25;10.90;;;4.45;;
51248;SDS011;39642;47.556;18.728;2022-07-23T03:19:51;10.05;;;4.05;;
51248;SDS011;39642;47.556;18.728;2022-07-23T03:22:17;10.90;;;4.43;;
51248;SDS011;39642;47.556;18.728;2022-07-23T03:24:43;10.40;;;4.40;;
51248;SDS011;39642;47.556;18.728;2022-07-23T03:27:21;10.75;;;4.12;;
51248;SDS011;39642;47.556;18.728;2022-07-23T03:29:48;11.02;;;4.40;;
51248;SDS011;39642;47.556;18.728;2022-07-23T03:32:15;11.15;;;4.53;;
51248;SDS011;39642;47.556;18.728;2022-07-23T03:34:41;10.13;;;4.10;;
51248;SDS011;39642;47.556;18.728;2022-07-23T03:37:07;9.98;;;4.22;;
51248;SDS011;39642;47.556;18.728;2022-07-23T03:39:33;10.70;;;4.22;;
51248;SDS011;39642;47.556;18.728;2022-07-23T03:41:59;10.90;;;3.95;;
51248;SDS011;39642;47.556;18.728;2022-07-23T03:44:25;12.57;;;5.07;;
51248;SDS011;39642;47.556;18.728;2022-07-23T03:46:51;11.88;;;4.40;;
51248;SDS011;39642;47.556;18.728;2022-07-23T03:49:17;9.50;;;3.95;;
51248;SDS011;39642;47.556;18.728;2022-07-23T03:51:42;10.18;;;4.45;;
51248;SDS011;39642;47.556;18.728;2022-07-23T03:54:09;10.63;;;4.30;;
51248;SDS011;39642;47.556;18.728;2022-07-23T03:56:35;11.60;;;4.80;;
51248;SDS011;39642;47.556;18.728;2022-07-23T03:59:01;12.70;;;4.60;;
51248;SDS011;39642;47.556;18.728;2022-07-23T04:01:27;10.20;;;4.50;;
51248;SDS011;39642;47.556;18.728;2022-07-23T04:03:52;10.75;;;4.50;;
51248;SDS011;39642;47.556;18.728;2022-07-23T04:06:18;9.77;;;4.22;;
51248;SDS011;39642;47.556;18.728;2022-07-23T04:08:44;11.18;;;4.55;;
51248;SDS011;39642;47.556;18.728;2022-07-23T04:11:10;11.38;;;4.72;;
51248;SDS011;39642;47.556;18.728;2022-07-23T04:13:36;10.30;;;4.18;;
51248;SDS011;39642;47.556;18.728;2022-07-23T04:16:02;11.15;;;4.30;;
51248;SDS011;39642;47.556;18.728;2022-07-23T04:18:29;10.45;;;4.35;;
51248;SDS011;39642;47.556;18.728;2022-07-23T04:20:55;10.45;;;4.25;;
51248;SDS011;39642;47.556;18.728;2022-07-23T04:23:21;9.80;;;4.43;;
51248;SDS011;39642;47.556;18.728;2022-07-23T04:25:47;11.25;;;4.28;;
51248;SDS011;39642;47.556;18.728;2022-07-23T04:28:13;10.77;;;4.05;;
51248;SDS011;39642;47.556;18.728;2022-07-23T04:30:38;10.73;;;4.28;;
51248;SDS011;39642;47.556;18.728;2022-07-23T04:33:04;10.13;;;4.10;;
51248;SDS011;39642;47.556;18.728;2022-07-23T04:35:34;11.07;;;4.60;;
51248;SDS011;39642;47.556;18.728;2022-07-23T04:38:00;12.10;;;4.35;;
51248;SDS011;39642;47.556;18.728;2022-07-23T04:40:26;10.98;;;4.45;;
51248;SDS011;39642;47.556;18.728;2022-07-23T04:42:53;10.73;;;4.50;;
51248;SDS011;39642;47.556;18.728;2022-07-23T04:45:19;9.75;;;4.40;;
51248;SDS011;39642;47.556;18.728;2022-07-23T04:47:45;10.15;;;4.50;;
51248;SDS011;39642;47.556;18.728;2022-07-23T04:50:11;10.85;;;4.62;;
51248;SDS011;39642;47.556;18.728;2022-07-23T04:52:37;10.77;;;4.60;;
51248;SDS011;39642;47.556;18.728;2022-07-23T04:55:03;11.10;;;4.75;;
51248;SDS011;39642;47.556;18.728;2022-07-23T04:57:29;11.70;;;4.43;;
51248;SDS011;39642;47.556;18.728;2022-07-23T04:59:55;12.37;;;4.65;;
51248;SDS011;39642;47.556;18.728;2022-07-23T05:02:21;10.18;;;4.43;;
51248;SDS011;39642;47.556;18.728;2022-07-23T05:04:47;10.85;;;4.47;;
51248;SDS011;39642;47.556;18.728;2022-07-23T05:07:13;11.48;;;4.53;;
51248;SDS011;39642;47.556;18.728;2022-07-23T05:09:38;11.75;;;4.80;;
51248;SDS011;39642;47.556;18.728;2022-07-23T05:12:04;11.00;;;4.68;;
51248;SDS011;39642;47.556;18.728;2022-07-23T05:14:30;10.43;;;4.20;;
51248;SDS011;39642;47.556;18.728;2022-07-23T05:16:56;10.43;;;4.65;;
51248;SDS011;39642;47.556;18.728;2022-07-23T05:19:22;12.25;;;4.30;;
51248;SDS011;39642;47.556;18.728;2022-07-23T05:21:48;10.95;;;4.93;;
51248;SDS011;39642;47.556;18.728;2022-07-23T05:24:14;13.10;;;5.05;;
51248;SDS011;39642;47.556;18.728;2022-07-23T05:26:40;10.02;;;4.18;;
51248;SDS011;39642;47.556;18.728;2022-07-23T05:29:06;10.98;;;4.50;;
51248;SDS011;39642;47.556;18.728;2022-07-23T05:31:32;11.32;;;4.65;;
51248;SDS011;39642;47.556;18.728;2022-07-23T05:33:57;10.63;;;4.47;;
51248;SDS011;39642;47.556;18.728;2022-07-23T05:36:23;10.70;;;4.78;;
51248;SDS011;39642;47.556;18.728;2022-07-23T05:38:50;12.68;;;4.32;;
51248;SDS011;39642;47.556;18.728;2022-07-23T05:41:16;10.60;;;4.32;;
51248;SDS011;39642;47.556;18.728;2022-07-23T05:43:42;11.07;;;4.70;;
51248;SDS011;39642;47.556;18.728;2022-07-23T05:46:08;10.20;;;4.50;;
51248;SDS011;39642;47.556;18.728;2022-07-23T05:48:33;10.30;;;4.55;;
51248;SDS011;39642;47.556;18.728;2022-07-23T05:50:59;10.00;;;4.32;;
51248;SDS011;39642;47.556;18.728;2022-07-23T05:53:26;13.07;;;5.00;;
51248;SDS011;39642;47.556;18.728;2022-07-23T05:55:52;12.65;;;4.93;;
51248;SDS011;39642;47.556;18.728;2022-07-23T05:58:18;10.52;;;4.65;;
51248;SDS011;39642;47.556;18.728;2022-07-23T06:00:44;12.43;;;4.65;;
51248;SDS011;39642;47.556;18.728;2022-07-23T06:03:09;12.18;;;4.87;;
51248;SDS011;39642;47.556;18.728;2022-07-23T06:05:35;10.80;;;4.40;;
51248;SDS011;39642;47.556;18.728;2022-07-23T06:08:01;11.05;;;4.47;;
51248;SDS011;39642;47.556;18.728;2022-07-23T06:10:27;10.50;;;4.90;;
51248;SDS011;39642;47.556;18.728;2022-07-23T06:12:53;9.90;;;4.32;;
51248;SDS011;39642;47.556;18.728;2022-07-23T06:15:19;12.20;;;4.80;;
51248;SDS011;39642;47.556;18.728;2022-07-23T06:17:45;11.65;;;4.75;;
51248;SDS011;39642;47.556;18.728;2022-07-23T06:20:11;12.55;;;5.20;;
51248;SDS011;39642;47.556;18.728;2022-07-23T06:22:37;11.38;;;4.75;;
51248;SDS011;39642;47.556;18.728;2022-07-23T06:25:03;11.55;;;4.72;;
51248;SDS011;39642;47.556;18.728;2022-07-23T06:27:30;10.93;;;4.53;;
51248;SDS011;39642;47.556;18.728;2022-07-23T06:29:56;12.88;;;4.85;;
51248;SDS011;39642;47.556;18.728;2022-07-23T06:32:21;11.30;;;4.80;;
51248;SDS011;39642;47.556;18.728;2022-07-23T06:34:47;10.70;;;4.50;;
51248;SDS011;39642;47.556;18.728;2022-07-23T06:37:13;12.02;;;5.03;;
51248;SDS011;39642;47.556;18.728;2022-07-23T06:39:39;10.45;;;4.80;;
51248;SDS011;39642;47.556;18.728;2022-07-23T06:42:05;10.40;;;4.65;;
51248;SDS011;39642;47.556;18.728;2022-07-23T06:44:31;10.25;;;4.53;;
51248;SDS011;39642;47.556;18.728;2022-07-23T06:46:57;10.98;;;4.78;;
51248;SDS011;39642;47.556;18.728;2022-07-23T06:49:23;11.25;;;4.47;;
51248;SDS011;39642;47.556;18.728;2022-07-23T06:51:49;11.10;;;4.87;;
51248;SDS011;39642;47.556;18.728;2022-07-23T06:54:15;11.40;;;4.70;;
51248;SDS011;39642;47.556;18.728;2022-07-23T06:56:40;11.30;;;4.40;;
51248;SDS011;39642;47.556;18.728;2022-07-23T06:59:08;10.63;;;4.37;;
51248;SDS011;39642;47.556;18.728;2022-07-23T07:01:34;10.73;;;4.45;;
51248;SDS011;39642;47.556;18.728;2022-07-23T07:03:59;10.77;;;4.68;;
51248;SDS011;39642;47.556;18.728;2022-07-23T07:06:25;12.00;;;4.80;;
51248;SDS011;39642;47.556;18.728;2022-07-23T07:08:51;10.63;;;4.45;;
51248;SDS011;39642;47.556;18.728;2022-07-23T07:11:17;12.95;;;4.82;;
51248;SDS011;39642;47.556;18.728;2022-07-23T07:13:43;10.60;;;4.47;;
51248;SDS011;39642;47.556;18.728;2022-07-23T07:16:09;10.30;;;4.50;;
51248;SDS011;39642;47.556;18.728;2022-07-23T07:18:35;11.52;;;4.60;;
51248;SDS011;39642;47.556;18.728;2022-07-23T07:21:01;12.18;;;4.40;;
51248;SDS011;39642;47.556;18.728;2022-07-23T07:23:27;11.63;;;4.82;;
51248;SDS011;39642;47.556;18.728;2022-07-23T07:25:53;12.05;;;4.85;;
51248;SDS011;39642;47.556;18.728;2022-07-23T07:28:18;10.93;;;4.72;;
51248;SDS011;39642;47.556;18.728;2022-07-23T07:30:44;11.30;;;4.50;;
51248;SDS011;39642;47.556;18.728;2022-07-23T07:33:10;11.20;;;4.50;;
51248;SDS011;39642;47.556;18.728;2022-07-23T07:35:36;11.35;;;4.35;;
51248;SDS011;39642;47.556;18.728;2022-07-23T07:38:02;11.40;;;4.82;;
51248;SDS011;39642;47.556;18.728;2022-07-23T07:40:28;12.02;;;4.53;;
51248;SDS011;39642;47.556;18.728;2022-07-23T07:42:54;11.75;;;4.85;;
51248;SDS011;39642;47.556;18.728;2022-07-23T07:45:22;15.00;;;5.37;;
51248;SDS011;39642;47.556;18.728;2022-07-23T07:47:50;12.82;;;5.07;;
51248;SDS011;39642;47.556;18.728;2022-07-23T07:50:17;10.55;;;4.43;;
51248;SDS011;39642;47.556;18.728;2022-07-23T07:52:43;12.73;;;4.32;;
51248;SDS011;39642;47.556;18.728;2022-07-23T07:55:09;12.15;;;4.65;;
51248;SDS011;39642;47.556;18.728;2022-07-23T07:57:36;12.95;;;5.05;;
51248;SDS011;39642;47.556;18.728;2022-07-23T08:00:03;10.15;;;4.62;;
51248;SDS011;39642;47.556;18.728;2022-07-23T08:02:39;11.10;;;4.72;;
51248;SDS011;39642;47.556;18.728;2022-07-23T08:05:05;10.88;;;5.05;;
51248;SDS011;39642;47.556;18.728;2022-07-23T08:07:32;13.20;;;4.65;;
51248;SDS011;39642;47.556;18.728;2022-07-23T08:09:58;11.50;;;4.87;;
51248;SDS011;39642;47.556;18.728;2022-07-23T08:12:23;10.60;;;4.35;;
51248;SDS011;39642;47.556;18.728;2022-07-23T08:14:49;14.55;;;5.25;;
51248;SDS011;39642;47.556;18.728;2022-07-23T08:17:15;11.93;;;4.82;;
51248;SDS011;39642;47.556;18.728;2022-07-23T08:19:41;13.48;;;5.00;;
51248;SDS011;39642;47.556;18.728;2022-07-23T08:22:07;10.73;;;4.95;;
51248;SDS011;39642;47.556;18.728;2022-07-23T08:24:33;12.43;;;5.22;;
51248;SDS011;39642;47.556;18.728;2022-07-23T08:26:59;12.48;;;4.60;;
51248;SDS011;39642;47.556;18.728;2022-07-23T08:29:25;11.60;;;5.03;;
51248;SDS011;39642;47.556;18.728;2022-07-23T08:31:51;11.20;;;4.62;;
51248;SDS011;39642;47.556;18.728;2022-07-23T08:34:17;10.88;;;4.50;;
51248;SDS011;39642;47.556;18.728;2022-07-23T08:36:43;11.68;;;5.07;;
51248;SDS011;39642;47.556;18.728;2022-07-23T08:39:09;10.55;;;4.90;;
51248;SDS011;39642;47.556;18.728;2022-07-23T08:41:34;11.45;;;4.85;;
51248;SDS011;39642;47.556;18.728;2022-07-23T08:44:01;12.18;;;4.85;;
51248;SDS011;39642;47.556;18.728;2022-07-23T08:46:27;12.07;;;4.68;;
51248;SDS011;39642;47.556;18.728;2022-07-23T08:48:53;14.25;;;4.50;;
51248;SDS011;39642;47.556;18.728;2022-07-23T08:51:20;12.98;;;4.68;;
51248;SDS011;39642;47.556;18.728;2022-07-23T08:53:46;11.25;;;4.90;;
51248;SDS011;39642;47.556;18.728;2022-07-23T08:56:12;11.27;;;4.55;;
51248;SDS011;39642;47.556;18.728;2022-07-23T08:58:38;13.55;;;5.12;;
51248;SDS011;39642;47.556;18.728;2022-07-23T09:01:04;14.80;;;4.60;;
51248;SDS011;39642;47.556;18.728;2022-07-23T09:03:31;11.50;;;4.60;;
51248;SDS011;39642;47.556;18.728;2022-07-23T09:05:58;12.05;;;4.47;;
51248;SDS011;39642;47.556;18.728;2022-07-23T09:08:37;11.60;;;4.62;;
51248;SDS011;39642;47.556;18.728;2022-07-23T09:11:08;13.07;;;4.60;;
51248;SDS011;39642;47.556;18.728;2022-07-23T09:18:51;13.18;;;4.97;;
51248;SDS011;39642;47.556;18.728;2022-07-23T09:21:20;11.43;;;4.47;;
51248;SDS011;39642;47.556;18.728;2022-07-23T09:24:06;11.55;;;4.45;;
51248;SDS011;39642;47.556;18.728;2022-07-23T09:26:35;11.60;;;4.68;;
51248;SDS011;39642;47.556;18.728;2022-07-23T09:34:29;12.15;;;4.62;;
51248;SDS011;39642;47.556;18.728;2022-07-23T09:37:08;11.43;;;4.47;;
51248;SDS011;39642;47.556;18.728;2022-07-23T09:39:36;10.95;;;4.25;;
51248;SDS011;39642;47.556;18.728;2022-07-23T09:42:22;11.98;;;4.53;;
51248;SDS011;39642;47.556;18.728;2022-07-23T09:44:50;10.95;;;4.15;;
51248;SDS011;39642;47.556;18.728;2022-07-23T09:47:22;11.18;;;4.60;;
51248;SDS011;39642;47.556;18.728;2022-07-23T09:52:30;13.43;;;4.72;;
51248;SDS011;39642;47.556;18.728;2022-07-23T09:54:59;11.82;;;4.47;;
51248;SDS011;39642;47.556;18.728;2022-07-23T09:57:27;14.05;;;4.20;;
51248;SDS011;39642;47.556;18.728;2022-07-23T09:59:53;13.30;;;4.80;;
51248;SDS011;39642;47.556;18.728;2022-07-23T10:02:34;10.43;;;4.12;;
51248;SDS011;39642;47.556;18.728;2022-07-23T10:05:01;10.60;;;4.32;;
51248;SDS011;39642;47.556;18.728;2022-07-23T10:07:27;10.23;;;4.40;;
51248;SDS011;39642;47.556;18.728;2022-07-23T10:09:59;11.32;;;4.50;;
51248;SDS011;39642;47.556;18.728;2022-07-23T10:12:26;11.32;;;4.35;;
51248;SDS011;39642;47.556;18.728;2022-07-23T10:15:10;11.45;;;4.72;;
51248;SDS011;39642;47.556;18.728;2022-07-23T10:17:36;11.43;;;4.93;;
51248;SDS011;39642;47.556;18.728;2022-07-23T10:20:03;11.32;;;4.55;;
51248;SDS011;39642;47.556;18.728;2022-07-23T10:22:33;11.88;;;4.55;;
51248;SDS011;39642;47.556;18.728;2022-07-23T10:25:12;11.45;;;4.43;;
51248;SDS011;39642;47.556;18.728;2022-07-23T10:41:40;13.02;;;4.80;;
51248;SDS011;39642;47.556;18.728;2022-07-23T10:44:11;13.27;;;4.85;;
51248;SDS011;39642;47.556;18.728;2022-07-23T10:46:53;12.50;;;4.87;;
51248;SDS011;39642;47.556;18.728;2022-07-23T10:49:31;11.23;;;4.82;;
51248;SDS011;39642;47.556;18.728;2022-07-23T10:54:40;11.52;;;5.12;;
51248;SDS011;39642;47.556;18.728;2022-07-23T10:57:15;13.68;;;5.20;;
51248;SDS011;39642;47.556;18.728;2022-07-23T11:02:26;13.27;;;5.37;;
51248;SDS011;39642;47.556;18.728;2022-07-23T11:04:56;13.45;;;5.60;;
51248;SDS011;39642;47.556;18.728;2022-07-23T11:07:25;11.82;;;5.28;;
51248;SDS011;39642;47.556;18.728;2022-07-23T11:09:51;12.30;;;5.55;;
51248;SDS011;39642;47.556;18.728;2022-07-23T11:17:23;10.68;;;5.30;;
51248;SDS011;39642;47.556;18.728;2022-07-23T11:22:56;12.68;;;5.68;;
51248;SDS011;39642;47.556;18.728;2022-07-23T11:27:55;12.25;;;5.87;;
51248;SDS011;39642;47.556;18.728;2022-07-23T11:35:37;13.25;;;5.70;;
51248;SDS011;39642;47.556;18.728;2022-07-23T11:38:05;12.35;;;5.53;;
51248;SDS011;39642;47.556;18.728;2022-07-23T11:40:33;11.30;;;5.50;;
51248;SDS011;39642;47.556;18.728;2022-07-23T11:43:03;11.98;;;5.18;;
51248;SDS011;39642;47.556;18.728;2022-07-23T11:45:34;12.32;;;6.20;;
51248;SDS011;39642;47.556;18.728;2022-07-23T11:48:05;11.38;;;5.32;;
51248;SDS011;39642;47.556;18.728;2022-07-23T11:50:33;13.20;;;5.70;;
51248;SDS011;39642;47.556;18.728;2022-07-23T11:52:59;12.73;;;5.40;;
51248;SDS011;39642;47.556;18.728;2022-07-23T11:55:25;11.80;;;5.55;;
51248;SDS011;39642;47.556;18.728;2022-07-23T11:57:51;12.90;;;5.85;;
51248;SDS011;39642;47.556;18.728;2022-07-23T12:00:20;14.20;;;5.72;;
51248;SDS011;39642;47.556;18.728;2022-07-23T12:02:56;11.32;;;5.57;;
51248;SDS011;39642;47.556;18.728;2022-07-23T12:05:32;12.13;;;5.43;;
51248;SDS011;39642;47.556;18.728;2022-07-23T12:08:03;11.93;;;5.35;;
51248;SDS011;39642;47.556;18.728;2022-07-23T12:10:37;15.13;;;5.90;;
51248;SDS011;39642;47.556;18.728;2022-07-23T12:13:06;12.10;;;5.80;;
51248;SDS011;39642;47.556;18.728;2022-07-23T12:15:37;12.45;;;5.60;;
51248;SDS011;39642;47.556;18.728;2022-07-23T12:18:06;12.68;;;5.75;;
51248;SDS011;39642;47.556;18.728;2022-07-23T12:20:34;11.73;;;5.75;;
51248;SDS011;39642;47.556;18.728;2022-07-23T12:23:04;11.27;;;5.45;;
51248;SDS011;39642;47.556;18.728;2022-07-23T12:25:32;12.65;;;6.03;;
51248;SDS011;39642;47.556;18.728;2022-07-23T12:28:10;12.85;;;5.78;;
51248;SDS011;39642;47.556;18.728;2022-07-23T12:30:53;11.60;;;5.37;;
51248;SDS011;39642;47.556;18.728;2022-07-23T12:33:21;13.15;;;5.57;;
51248;SDS011;39642;47.556;18.728;2022-07-23T12:35:49;14.13;;;5.65;;
51248;SDS011;39642;47.556;18.728;2022-07-23T12:38:16;12.13;;;5.55;;
51248;SDS011;39642;47.556;18.728;2022-07-23T12:40:56;12.37;;;5.47;;
51248;SDS011;39642;47.556;18.728;2022-07-23T12:48:27;11.30;;;5.47;;
51248;SDS011;39642;47.556;18.728;2022-07-23T12:51:01;11.30;;;5.28;;
51248;SDS011;39642;47.556;18.728;2022-07-23T12:53:39;13.25;;;5.37;;
51248;SDS011;39642;47.556;18.728;2022-07-23T12:56:14;11.85;;;5.25;;
51248;SDS011;39642;47.556;18.728;2022-07-23T13:06:22;11.70;;;5.47;;
51248;SDS011;39642;47.556;18.728;2022-07-23T13:08:48;12.05;;;5.32;;
51248;SDS011;39642;47.556;18.728;2022-07-23T13:11:14;12.15;;;5.28;;
51248;SDS011;39642;47.556;18.728;2022-07-23T13:13:40;13.98;;;5.35;;
51248;SDS011;39642;47.556;18.728;2022-07-23T13:16:07;14.98;;;5.50;;
51248;SDS011;39642;47.556;18.728;2022-07-23T13:18:32;12.90;;;5.78;;
51248;SDS011;39642;47.556;18.728;2022-07-23T13:20:59;13.02;;;5.47;;
51248;SDS011;39642;47.556;18.728;2022-07-23T13:23:25;12.27;;;5.20;;
51248;SDS011;39642;47.556;18.728;2022-07-23T13:25:51;10.63;;;5.12;;
51248;SDS011;39642;47.556;18.728;2022-07-23T13:28:18;11.02;;;4.85;;
51248;SDS011;39642;47.556;18.728;2022-07-23T13:30:46;10.90;;;4.82;;
51248;SDS011;39642;47.556;18.728;2022-07-23T13:33:15;11.45;;;4.70;;
51248;SDS011;39642;47.556;18.728;2022-07-23T13:35:43;11.82;;;5.30;;
51248;SDS011;39642;47.556;18.728;2022-07-23T13:38:09;11.73;;;4.75;;
51248;SDS011;39642;47.556;18.728;2022-07-23T13:40:36;10.13;;;4.30;;
51248;SDS011;39642;47.556;18.728;2022-07-23T13:43:07;12.95;;;4.87;;
51248;SDS011;39642;47.556;18.728;2022-07-23T13:45:35;11.65;;;5.03;;
51248;SDS011;39642;47.556;18.728;2022-07-23T13:48:02;11.48;;;4.78;;
51248;SDS011;39642;47.556;18.728;2022-07-23T13:50:28;12.10;;;5.12;;
51248;SDS011;39642;47.556;18.728;2022-07-23T13:52:54;10.98;;;5.10;;
51248;SDS011;39642;47.556;18.728;2022-07-23T13:55:20;11.15;;;5.05;;
51248;SDS011;39642;47.556;18.728;2022-07-23T13:57:46;12.13;;;4.95;;
51248;SDS011;39642;47.556;18.728;2022-07-23T14:00:12;11.38;;;5.00;;
51248;SDS011;39642;47.556;18.728;2022-07-23T14:02:39;11.35;;;5.07;;
51248;SDS011;39642;47.556;18.728;2022-07-23T14:05:06;10.18;;;5.00;;
51248;SDS011;39642;47.556;18.728;2022-07-23T14:07:34;10.57;;;5.20;;
51248;SDS011;39642;47.556;18.728;2022-07-23T14:10:01;11.73;;;5.40;;
51248;SDS011;39642;47.556;18.728;2022-07-23T14:12:28;13.07;;;5.22;;
51248;SDS011;39642;47.556;18.728;2022-07-23T14:14:55;13.43;;;5.50;;
51248;SDS011;39642;47.556;18.728;2022-07-23T14:17:21;11.45;;;5.43;;
51248;SDS011;39642;47.556;18.728;2022-07-23T14:19:47;11.73;;;5.20;;
51248;SDS011;39642;47.556;18.728;2022-07-23T14:22:13;15.52;;;5.80;;
51248;SDS011;39642;47.556;18.728;2022-07-23T14:24:38;11.38;;;5.35;;
51248;SDS011;39642;47.556;18.728;2022-07-23T14:27:05;11.12;;;5.00;;
51248;SDS011;39642;47.556;18.728;2022-07-23T14:29:31;11.77;;;5.32;;
51248;SDS011;39642;47.556;18.728;2022-07-23T14:31:57;13.68;;;5.28;;
51248;SDS011;39642;47.556;18.728;2022-07-23T14:34:23;12.35;;;5.78;;
51248;SDS011;39642;47.556;18.728;2022-07-23T14:36:50;14.45;;;5.47;;
51248;SDS011;39642;47.556;18.728;2022-07-23T14:39:16;14.40;;;5.90;;
51248;SDS011;39642;47.556;18.728;2022-07-23T14:41:42;12.32;;;5.40;;
51248;SDS011;39642;47.556;18.728;2022-07-23T14:44:08;11.15;;;5.68;;
51248;SDS011;39642;47.556;18.728;2022-07-23T14:46:34;12.63;;;5.30;;
51248;SDS011;39642;47.556;18.728;2022-07-23T14:49:00;12.40;;;5.65;;
51248;SDS011;39642;47.556;18.728;2022-07-23T14:51:26;11.90;;;5.18;;
51248;SDS011;39642;47.556;18.728;2022-07-23T14:53:53;11.88;;;5.32;;
51248;SDS011;39642;47.556;18.728;2022-07-23T14:56:19;12.05;;;5.18;;
51248;SDS011;39642;47.556;18.728;2022-07-23T14:58:45;11.30;;;5.35;;
51248;SDS011;39642;47.556;18.728;2022-07-23T15:01:10;11.25;;;4.95;;
51248;SDS011;39642;47.556;18.728;2022-07-23T15:03:37;11.98;;;4.50;;
51248;SDS011;39642;47.556;18.728;2022-07-23T15:06:03;12.18;;;5.10;;
51248;SDS011;39642;47.556;18.728;2022-07-23T15:08:29;9.80;;;4.90;;
51248;SDS011;39642;47.556;18.728;2022-07-23T15:10:55;10.15;;;4.70;;
51248;SDS011;39642;47.556;18.728;2022-07-23T15:13:21;9.95;;;4.57;;
51248;SDS011;39642;47.556;18.728;2022-07-23T15:15:47;10.88;;;5.00;;
51248;SDS011;39642;47.556;18.728;2022-07-23T15:18:13;11.68;;;5.43;;
51248;SDS011;39642;47.556;18.728;2022-07-23T15:20:38;11.88;;;4.97;;
51248;SDS011;39642;47.556;18.728;2022-07-23T15:23:05;10.45;;;4.93;;